Time;durP1;ratioP1;P1;durP2;ratioP2;P2;SDS_P1;SDS_P2;PMS_P1;PMS_P2;Temp;Humidity;BMP_temperature;BMP_pressure;BME280_temperature;BME280_humidity;BME280_pressure;Samples;Min_cycle;Max_cycle;Signal;HPM_P1;HPM_P2
2023/06/27 00:00:40;;;;;;;6.40;5.07;;;;;;;20.88;100.00;101154.53;2097028;28;20248;-62
2023/06/27 00:01:41;;;;;;;6.10;4.90;;;;;;;20.83;100.00;101153.16;2110712;28;20907;-62
2023/06/27 00:02:42;;;;;;;6.70;5.73;;;;;;;20.80;100.00;101144.94;2108006;28;20180;-62
2023/06/27 00:03:43;;;;;;;6.00;4.90;;;;;;;20.37;100.00;101084.63;2100310;28;20195;-62
2023/06/27 00:04:44;;;;;;;7.93;5.20;;;;;;;20.49;100.00;101096.84;2099517;28;20942;-62
2023/06/27 00:05:44;;;;;;;8.53;4.77;;;;;;;20.49;100.00;101102.47;2104609;28;20205;-62
2023/06/27 00:06:45;;;;;;;5.70;5.10;;;;;;;20.39;100.00;101101.03;2104088;28;20190;-62
2023/06/27 00:07:47;;;;;;;6.80;5.47;;;;;;;20.68;100.00;101143.22;2096797;28;20184;-62
2023/06/27 00:08:49;;;;;;;10.50;4.93;;;;;;;20.70;100.00;101151.94;2100427;28;20519;-63
2023/06/27 00:09:49;;;;;;;8.00;5.07;;;;;;;20.66;100.00;101152.16;2098516;28;20445;-62
2023/06/27 00:10:50;;;;;;;6.70;5.00;;;;;;;20.68;100.00;101146.78;2096942;28;20524;-62
2023/06/27 00:11:50;;;;;;;7.73;5.40;;;;;;;20.41;100.00;101112.59;2097105;28;20202;-62
2023/06/27 00:12:52;;;;;;;7.03;4.93;;;;;;;20.62;100.00;101137.50;2096568;28;20215;-62
2023/06/27 00:13:53;;;;;;;6.80;4.83;;;;;;;20.68;100.00;101146.03;2099215;28;20181;-63
2023/06/27 00:14:54;;;;;;;6.00;5.07;;;;;;;20.66;100.00;101157.78;2105028;28;20182;-62
2023/06/27 00:15:55;;;;;;;8.10;5.43;;;;;;;20.68;100.00;101149.63;2105182;28;20181;-62
2023/06/27 00:16:57;;;;;;;7.47;5.40;;;;;;;20.63;100.00;101141.84;2105407;28;20413;-62
2023/06/27 00:17:57;;;;;;;7.60;4.93;;;;;;;20.73;100.00;101150.97;2112816;28;20289;-63
2023/06/27 00:19:02;;;;;;;16.63;6.00;;;;;;;20.71;100.00;101145.03;2107225;28;20473;-62
2023/06/27 00:20:04;;;;;;;18.80;6.70;;;;;;;20.65;100.00;101159.06;2110792;28;20206;-63
2023/06/27 00:21:05;;;;;;;20.87;6.47;;;;;;;20.56;100.00;101136.63;2112046;28;20439;-63
2023/06/27 00:22:09;;;;;;;12.70;4.70;;;;;;;20.59;100.00;101138.47;2112247;28;20470;-62
2023/06/27 00:23:20;;;;;;;12.13;5.57;;;;;;;20.50;100.00;101146.25;2107028;28;20233;-63
2023/06/27 00:24:20;;;;;;;7.30;4.77;;;;;;;20.37;100.00;101143.75;2102961;28;20451;-62
2023/06/27 00:25:21;;;;;;;7.70;5.00;;;;;;;20.33;100.00;101142.41;2111612;28;20506;-62
2023/06/27 00:26:22;;;;;;;6.97;4.60;;;;;;;20.27;100.00;101141.53;2104703;28;20192;-62
2023/06/27 00:27:22;;;;;;;11.07;5.00;;;;;;;20.22;100.00;101140.16;2113998;28;20643;-62
2023/06/27 00:28:23;;;;;;;6.23;4.63;;;;;;;20.20;100.00;101147.53;2097835;28;20191;-62
2023/06/27 00:29:23;;;;;;;7.70;4.60;;;;;;;20.15;100.00;101153.84;2109253;28;20194;-62
2023/06/27 00:30:24;;;;;;;12.40;5.13;;;;;;;20.12;100.00;101143.59;2102819;28;20205;-62
2023/06/27 00:31:25;;;;;;;10.30;5.47;;;;;;;20.09;100.00;101145.31;2100661;28;20179;-62
2023/06/27 00:32:25;;;;;;;13.67;5.77;;;;;;;20.08;100.00;101148.63;2104029;28;20305;-62
2023/06/27 00:33:26;;;;;;;12.13;5.67;;;;;;;20.04;100.00;101151.59;2104655;28;20174;-62
2023/06/27 00:34:26;;;;;;;12.47;5.47;;;;;;;20.01;100.00;101146.94;2104881;28;20239;-62
2023/06/27 00:35:26;;;;;;;7.87;5.30;;;;;;;20.05;100.00;101158.78;2105529;28;20172;-62
2023/06/27 00:36:27;;;;;;;11.17;5.23;;;;;;;20.04;100.00;101159.25;2098085;28;20714;-62
2023/06/27 00:37:27;;;;;;;7.67;5.10;;;;;;;19.72;100.00;101113.19;2096993;28;20272;-62
2023/06/27 00:38:28;;;;;;;9.93;5.00;;;;;;;19.78;100.00;101116.88;2096175;28;20198;-62
2023/06/27 00:39:28;;;;;;;6.57;5.07;;;;;;;19.80;100.00;101119.19;2095801;28;20195;-62
2023/06/27 00:40:29;;;;;;;7.10;5.50;;;;;;;20.04;100.00;101159.25;2096888;28;20676;-62
2023/06/27 00:41:29;;;;;;;7.27;5.60;;;;;;;20.03;100.00;101157.72;2098938;28;20523;-63
2023/06/27 00:42:29;;;;;;;7.37;5.03;;;;;;;20.06;100.00;101153.94;2113143;28;20171;-62
2023/06/27 00:43:30;;;;;;;7.20;5.57;;;;;;;19.72;100.00;101098.34;2105400;28;20182;-62
2023/06/27 00:44:31;;;;;;;9.23;5.27;;;;;;;20.02;100.00;101144.91;2104317;28;20190;-61
2023/06/27 00:45:31;;;;;;;13.17;5.50;;;;;;;19.91;100.00;101125.78;2098601;28;20665;-62
2023/06/27 00:46:40;;;;;;;9.83;5.40;;;;;;;20.13;100.00;101150.75;2101492;28;20579;-62
2023/06/27 00:47:40;;;;;;;10.07;5.87;;;;;;;20.05;100.00;101141.13;2105165;28;20656;-62
2023/06/27 00:48:41;;;;;;;10.47;5.87;;;;;;;20.15;100.00;101151.81;2101436;28;20830;-62
2023/06/27 00:49:42;;;;;;;12.30;5.87;;;;;;;20.19;100.00;101151.63;2097386;28;20207;-62
2023/06/27 00:50:45;;;;;;;10.93;6.03;;;;;;;20.15;100.00;101153.84;2098430;28;20211;-62
2023/06/27 00:51:48;;;;;;;10.50;6.00;;;;;;;19.63;100.00;101075.91;2099118;28;20206;-62
2023/06/27 00:52:49;;;;;;;13.73;5.73;;;;;;;20.15;100.00;101149.00;2114825;28;20832;-62
2023/06/27 00:53:50;;;;;;;11.63;6.07;;;;;;;20.16;100.00;101152.63;2098252;28;20491;-62
2023/06/27 00:54:52;;;;;;;8.83;5.87;;;;;;;20.16;100.00;101150.56;2098514;28;20500;-62
2023/06/27 00:55:53;;;;;;;9.93;5.87;;;;;;;20.11;100.00;101137.16;2104396;28;20187;-62
2023/06/27 00:56:54;;;;;;;8.20;5.67;;;;;;;19.78;100.00;101091.56;2101640;28;20532;-62
2023/06/27 00:57:54;;;;;;;7.47;5.93;;;;;;;20.16;100.00;101155.44;2102005;28;20260;-62
2023/06/27 00:58:57;;;;;;;9.47;6.10;;;;;;;20.15;100.00;101159.47;2103633;28;20194;-62
2023/06/27 00:59:58;;;;;;;10.07;4.70;;;;;;;20.15;100.00;101149.00;2101184;28;20187;-61
2023/06/27 01:01:00;;;;;;;7.40;4.90;;;;;;;20.13;100.00;101150.75;2113946;28;20434;-63
2023/06/27 01:02:01;;;;;;;8.80;4.63;;;;;;;20.10;100.00;101146.88;2106655;28;20632;-62
2023/06/27 01:03:03;;;;;;;11.50;5.27;;;;;;;19.66;100.00;101086.97;2106605;28;20540;-62
2023/06/27 01:04:04;;;;;;;13.67;5.87;;;;;;;19.85;100.00;101127.72;2099023;28;20409;-62
2023/06/27 01:05:07;;;;;;;16.07;5.60;;;;;;;20.02;100.00;101142.09;2104487;28;20444;-62
2023/06/27 01:06:14;;;;;;;14.27;5.80;;;;;;;19.96;100.00;101141.22;2101220;28;20211;-63
2023/06/27 01:07:23;;;;;;;26.50;6.97;;;;;;;19.97;100.00;101142.78;2103277;28;20483;-63
2023/06/27 01:08:33;;;;;;;21.67;6.27;;;;;;;19.60;100.00;101100.16;2106661;28;20493;-62
2023/06/27 01:09:36;;;;;;;10.67;5.47;;;;;;;19.91;100.00;101145.47;2106158;28;20437;-63
2023/06/27 01:11:07;;;;;;;12.17;6.00;;;;;;;19.91;100.00;101147.53;2109746;28;20937;-62
2023/06/27 01:12:41;;;;;;;7.73;5.27;;;;;;;19.94;100.00;101143.72;2093122;28;20460;-62
2023/06/27 01:13:47;;;;;;;6.47;5.10;;;;;;;19.49;100.00;101087.94;2084536;28;20445;-62
2023/06/27 01:14:50;;;;;;;9.63;4.70;;;;;;;19.91;100.00;101144.72;2101519;28;20800;-62
2023/06/27 01:15:51;;;;;;;9.20;5.00;;;;;;;19.90;100.00;101143.94;2097857;28;20421;-61
2023/06/27 01:16:51;;;;;;;8.10;5.33;;;;;;;19.84;100.00;101140.22;2098481;28;20445;-62
2023/06/27 01:17:52;;;;;;;9.17;5.20;;;;;;;19.88;100.00;101138.03;2098401;28;20185;-62
2023/06/27 01:18:54;;;;;;;11.97;5.70;;;;;;;19.89;100.00;101142.38;2110318;28;20288;-61
2023/06/27 01:19:55;;;;;;;9.57;5.70;;;;;;;19.89;100.00;101142.38;2104361;28;20223;-62
2023/06/27 01:20:58;;;;;;;7.67;5.63;;;;;;;19.90;100.00;101145.97;2098205;28;20514;-62
2023/06/27 01:22:05;;;;;;;7.33;5.23;;;;;;;19.91;100.00;101139.09;2097597;28;20446;-63
2023/06/27 01:23:14;;;;;;;8.90;5.43;;;;;;;19.76;100.00;101115.78;2097930;28;20521;-61
2023/06/27 01:24:15;;;;;;;10.10;5.60;;;;;;;19.80;100.00;101133.25;2100798;28;20813;-62
2023/06/27 01:25:16;;;;;;;14.00;5.53;;;;;;;19.84;100.00;101145.06;2106342;28;20417;-62
2023/06/27 01:26:16;;;;;;;14.90;5.97;;;;;;;19.82;100.00;101147.59;2106408;28;20693;-62
2023/06/27 01:27:17;;;;;;;16.47;6.07;;;;;;;19.73;100.00;101142.84;2106353;28;20185;-62
2023/06/27 01:28:17;;;;;;;14.63;5.20;;;;;;;19.71;100.00;101138.97;2098368;28;20215;-62
2023/06/27 01:29:18;;;;;;;14.23;5.83;;;;;;;19.57;100.00;101122.84;2104827;28;20201;-62
2023/06/27 01:30:18;;;;;;;9.57;5.47;;;;;;;19.71;100.00;101144.59;2100860;28;20191;-62
2023/06/27 01:31:30;;;;;;;14.07;5.50;;;;;;;19.66;100.00;101145.25;2106952;28;20687;-62
2023/06/27 01:32:40;;;;;;;16.93;5.40;;;;;;;19.63;100.00;101152.63;2109381;28;20289;-62
2023/06/27 01:33:53;;;;;;;11.20;5.50;;;;;;;19.28;100.00;101103.09;2101086;28;20452;-62
2023/06/27 01:35:13;;;;;;;8.83;5.23;;;;;;;19.60;100.00;101142.31;2103450;28;20409;-63
2023/06/27 01:36:42;;;;;;;11.17;5.20;;;;;;;19.59;100.00;101148.47;2105932;28;20825;-62
2023/06/27 01:37:55;;;;;;;11.97;5.57;;;;;;;19.56;100.00;101152.22;2094860;28;20946;-62
2023/06/27 01:39:06;;;;;;;13.03;5.37;;;;;;;19.54;100.00;101163.94;2113512;28;20418;-62
2023/06/27 01:40:10;;;;;;;20.00;5.97;;;;;;;19.50;100.00;101152.09;2099224;28;20477;-63
2023/06/27 01:41:16;;;;;;;15.27;5.63;;;;;;;19.42;100.00;101156.53;2114075;28;20427;-62
2023/06/27 01:42:18;;;;;;;13.13;5.37;;;;;;;19.36;100.00;101152.06;2097706;28;21061;-62
2023/06/27 01:43:19;;;;;;;10.60;5.43;;;;;;;19.40;100.00;101153.41;2114491;28;20498;-63
2023/06/27 01:44:22;;;;;;;12.33;5.63;;;;;;;19.23;100.00;101121.41;2099530;28;21023;-62
2023/06/27 01:45:23;;;;;;;9.37;4.80;;;;;;;19.45;100.00;101141.50;2110304;28;20550;-63
2023/06/27 01:46:24;;;;;;;9.90;5.10;;;;;;;19.41;100.00;101126.88;2109303;28;20433;-62
2023/06/27 01:47:25;;;;;;;12.33;5.43;;;;;;;19.28;100.00;101106.69;2101750;28;20446;-63
2023/06/27 01:48:26;;;;;;;7.87;4.73;;;;;;;19.47;100.00;101143.84;2098066;28;20242;-62
2023/06/27 01:49:26;;;;;;;6.60;4.70;;;;;;;19.49;100.00;101147.72;2097670;28;20926;-62
2023/06/27 01:50:27;;;;;;;11.33;5.23;;;;;;;19.44;100.00;101142.00;2098521;28;20265;-62
2023/06/27 01:51:28;;;;;;;9.07;5.13;;;;;;;19.41;100.00;101154.22;2106708;28;20174;-62
2023/06/27 01:52:29;;;;;;;6.90;5.83;;;;;;;18.39;100.00;101010.56;2097795;28;20215;-62
2023/06/27 01:53:29;;;;;;;8.80;5.47;;;;;;;19.24;100.00;101151.03;2104412;28;20448;-63
2023/06/27 01:54:29;;;;;;;7.97;5.23;;;;;;;19.21;100.00;101154.00;2106224;28;20214;-62
2023/06/27 01:55:32;;;;;;;9.57;5.70;;;;;;;19.24;100.00;101153.09;2101954;28;20199;-62
2023/06/27 01:56:33;;;;;;;7.87;5.47;;;;;;;19.27;100.00;101152.13;2097170;28;20564;-62
2023/06/27 01:57:33;;;;;;;8.10;5.77;;;;;;;19.25;100.00;101140.59;2100168;28;20475;-62
2023/06/27 01:58:34;;;;;;;7.90;5.60;;;;;;;18.78;100.00;101067.56;2104720;28;20246;-62
2023/06/27 01:59:34;;;;;;;19.40;6.17;;;;;;;19.32;100.00;101152.25;2097959;28;20183;-62
2023/06/27 02:00:35;;;;;;;14.80;6.63;;;;;;;18.81;100.00;101072.97;2097843;28;20673;-62
2023/06/27 02:01:35;;;;;;;9.80;5.87;;;;;;;19.36;100.00;101149.25;2097987;28;20202;-62
2023/06/27 02:02:36;;;;;;;9.47;5.00;;;;;;;19.33;100.00;101142.56;2097300;28;20238;-62
2023/06/27 02:03:37;;;;;;;9.37;5.30;;;;;;;19.34;100.00;101154.59;2097524;28;20621;-62
2023/06/27 02:04:37;;;;;;;12.07;5.23;;;;;;;19.32;100.00;101149.44;2104977;28;20194;-62
2023/06/27 02:05:37;;;;;;;8.87;5.00;;;;;;;18.93;100.00;101090.84;2109380;28;20182;-62
2023/06/27 02:06:38;;;;;;;8.27;5.47;;;;;;;19.26;100.00;101142.13;2099017;28;20172;-62
2023/06/27 02:07:38;;;;;;;9.53;5.20;;;;;;;18.91;100.00;101087.72;2106218;28;20253;-62
2023/06/27 02:08:39;;;;;;;7.50;4.97;;;;;;;19.28;100.00;101142.44;2099928;28;20176;-62
2023/06/27 02:09:39;;;;;;;9.97;5.60;;;;;;;19.30;100.00;101139.94;2105416;28;20194;-61
2023/06/27 02:10:39;;;;;;;12.97;5.77;;;;;;;19.31;100.00;101141.47;2104807;28;20647;-62
2023/06/27 02:11:40;;;;;;;13.30;5.73;;;;;;;18.80;100.00;101073.47;2110500;28;20194;-63
2023/06/27 02:12:40;;;;;;;11.17;5.63;;;;;;;19.30;100.00;101140.69;2106511;28;20298;-62
2023/06/27 02:13:41;;;;;;;14.83;6.57;;;;;;;19.29;100.00;101147.56;2101307;28;20198;-62
2023/06/27 02:14:41;;;;;;;22.27;7.83;;;;;;;19.29;100.00;101149.63;2109403;28;20193;-62
2023/06/27 02:15:41;;;;;;;17.17;6.63;;;;;;;19.14;100.00;101120.66;2097955;28;20183;-62
2023/06/27 02:16:42;;;;;;;15.50;6.60;;;;;;;19.18;100.00;101144.50;2112901;28;20225;-62
2023/06/27 02:17:42;;;;;;;16.33;5.97;;;;;;;19.19;100.00;101148.09;2100998;28;20622;-62
2023/06/27 02:18:43;;;;;;;13.27;5.80;;;;;;;19.20;100.00;101144.03;2108134;28;20213;-62
2023/06/27 02:19:43;;;;;;;13.10;5.97;;;;;;;19.20;100.00;101149.66;2105638;28;20187;-62
2023/06/27 02:20:44;;;;;;;8.17;5.20;;;;;;;19.22;100.00;101145.13;2103571;28;20194;-62
2023/06/27 02:21:44;;;;;;;7.13;5.07;;;;;;;19.20;100.00;101146.84;2110746;28;20227;-62
2023/06/27 02:22:45;;;;;;;11.70;5.77;;;;;;;19.12;100.00;101135.19;2097238;28;20216;-62
2023/06/27 02:23:45;;;;;;;6.63;5.43;;;;;;;19.19;100.00;101148.09;2097577;28;20241;-62
2023/06/27 02:24:46;;;;;;;7.87;5.43;;;;;;;19.20;100.00;101150.44;2097298;28;20191;-62
2023/06/27 02:25:46;;;;;;;9.57;5.67;;;;;;;18.89;100.00;101096.63;2097458;28;20190;-61
2023/06/27 02:26:46;;;;;;;7.73;4.90;;;;;;;19.23;100.00;101151.50;2097752;28;20180;-62
2023/06/27 02:27:47;;;;;;;9.87;5.70;;;;;;;19.24;100.00;101144.66;2106062;28;20201;-62
2023/06/27 02:28:47;;;;;;;9.47;5.57;;;;;;;19.21;100.00;101145.59;2107510;28;20200;-62
2023/06/27 02:29:48;;;;;;;7.77;5.40;;;;;;;19.24;100.00;101151.03;2097854;28;20249;-62
2023/06/27 02:30:48;;;;;;;7.43;5.50;;;;;;;19.23;100.00;101154.31;2098237;28;20191;-62
2023/06/27 02:31:49;;;;;;;8.47;5.47;;;;;;;19.22;100.00;101149.97;2106214;28;20179;-62
2023/06/27 02:32:49;;;;;;;7.30;5.30;;;;;;;18.94;100.00;101104.41;2097225;28;20210;-62
2023/06/27 02:33:50;;;;;;;9.23;5.40;;;;;;;19.13;100.00;101141.59;2104158;28;20559;-62
2023/06/27 02:34:50;;;;;;;8.10;5.80;;;;;;;19.27;100.00;101161.34;2105666;28;20269;-62
2023/06/27 02:35:50;;;;;;;8.03;5.33;;;;;;;19.27;100.00;101160.56;2105792;28;20194;-61
2023/06/27 02:36:51;;;;;;;8.40;5.07;;;;;;;19.29;100.00;101166.50;2106004;28;20240;-62
2023/06/27 02:37:51;;;;;;;7.27;5.00;;;;;;;18.85;100.00;101096.06;2104849;28;20240;-62
2023/06/27 02:38:54;;;;;;;8.47;5.53;;;;;;;19.30;100.00;101163.19;2103785;28;20293;-62
2023/06/27 02:39:56;;;;;;;13.13;5.90;;;;;;;19.30;100.00;101162.41;2097496;28;20224;-62
2023/06/27 02:40:56;;;;;;;10.03;5.73;;;;;;;19.18;100.00;101146.56;2106119;28;20427;-62
2023/06/27 02:41:57;;;;;;;9.70;5.80;;;;;;;19.30;100.00;101159.59;2104976;28;20487;-61
2023/06/27 02:42:57;;;;;;;10.80;6.23;;;;;;;19.34;100.00;101171.44;2099475;28;20183;-62
2023/06/27 02:43:57;;;;;;;10.03;6.13;;;;;;;19.36;100.00;101166.13;2096978;28;20293;-62
2023/06/27 02:44:58;;;;;;;9.47;5.83;;;;;;;18.74;100.00;101084.59;2097311;28;20198;-62
2023/06/27 02:45:58;;;;;;;7.70;5.53;;;;;;;19.21;100.00;101157.59;2100100;28;20434;-62
2023/06/27 02:46:59;;;;;;;10.40;6.43;;;;;;;19.22;100.00;101170.44;2104160;28;20336;-62
2023/06/27 02:47:59;;;;;;;8.47;5.97;;;;;;;19.26;100.00;101164.63;2097633;28;20179;-62
2023/06/27 02:48:59;;;;;;;7.87;5.70;;;;;;;19.28;100.00;101162.88;2114524;28;20247;-61
2023/06/27 02:50:00;;;;;;;7.80;5.73;;;;;;;18.84;100.00;101090.91;2098720;28;20227;-62
2023/06/27 02:51:00;;;;;;;8.40;6.17;;;;;;;19.32;100.00;101162.69;2103779;28;20210;-62
2023/06/27 02:52:00;;;;;;;10.93;6.00;;;;;;;18.88;100.00;101094.31;2105183;28;20259;-62
2023/06/27 02:53:01;;;;;;;8.93;5.70;;;;;;;19.09;100.00;101129.75;2100952;28;20225;-62
2023/06/27 02:54:02;;;;;;;11.00;5.63;;;;;;;19.32;100.00;101159.88;2099268;28;20194;-62
2023/06/27 02:55:02;;;;;;;7.20;6.03;;;;;;;19.39;100.00;101163.13;2103918;28;20202;-62
2023/06/27 02:56:04;;;;;;;9.63;5.73;;;;;;;19.30;100.00;101157.56;2097210;28;20640;-63
2023/06/27 02:57:04;;;;;;;8.63;5.30;;;;;;;19.41;100.00;101171.06;2097718;28;20285;-61
2023/06/27 02:58:05;;;;;;;8.77;6.00;;;;;;;18.79;100.00;101067.06;2105516;28;20428;-62
2023/06/27 02:59:05;;;;;;;11.90;5.53;;;;;;;19.42;100.00;101164.97;2109698;28;20187;-62
2023/06/27 03:00:06;;;;;;;10.43;5.37;;;;;;;19.44;100.00;101165.25;2108400;28;20687;-62
2023/06/27 03:01:07;;;;;;;10.17;5.70;;;;;;;19.01;100.00;101104.06;2108739;28;20189;-62
2023/06/27 03:02:07;;;;;;;13.83;6.20;;;;;;;19.47;100.00;101169.94;2110368;28;20441;-62
2023/06/27 03:03:07;;;;;;;8.10;5.57;;;;;;;19.50;100.00;101165.38;2103829;28;20270;-63
2023/06/27 03:04:11;;;;;;;9.60;5.50;;;;;;;19.49;100.00;101158.97;2096807;28;20258;-62
2023/06/27 03:05:11;;;;;;;9.93;5.30;;;;;;;19.49;100.00;101169.47;2097747;28;20186;-62
2023/06/27 03:06:12;;;;;;;9.83;5.63;;;;;;;19.50;100.00;101168.97;2105504;28;20436;-62
2023/06/27 03:07:14;;;;;;;10.23;5.37;;;;;;;19.52;100.00;101177.72;2104685;28;20230;-62
2023/06/27 03:08:14;;;;;;;10.87;5.23;;;;;;;19.25;100.00;101127.31;2098850;28;20519;-62
2023/06/27 03:09:18;;;;;;;10.30;5.33;;;;;;;19.52;100.00;101176.91;2099125;28;20433;-62
2023/06/27 03:10:18;;;;;;;7.40;5.17;;;;;;;19.51;100.00;101176.16;2097213;28;20198;-62
2023/06/27 03:11:19;;;;;;;10.50;5.43;;;;;;;19.41;100.00;101160.63;2097194;28;20453;-62
2023/06/27 03:12:19;;;;;;;11.27;5.50;;;;;;;19.52;100.00;101180.50;2096470;28;20183;-62
2023/06/27 03:13:20;;;;;;;7.17;5.63;;;;;;;19.52;100.00;101183.31;2097517;28;20183;-62
2023/06/27 03:14:21;;;;;;;10.03;5.87;;;;;;;19.53;100.00;101178.47;2104669;28;20191;-63
2023/06/27 03:15:21;;;;;;;8.47;5.80;;;;;;;19.52;100.00;101188.16;2113001;28;20625;-62
2023/06/27 03:16:22;;;;;;;8.97;6.20;;;;;;;19.57;100.00;101187.50;2106816;28;20521;-62
2023/06/27 03:17:22;;;;;;;6.47;5.80;;;;;;;19.53;100.00;101184.09;2100012;28;20615;-62
2023/06/27 03:18:23;;;;;;;7.83;5.50;;;;;;;19.58;100.00;101189.84;2101868;28;20201;-62
2023/06/27 03:19:23;;;;;;;8.27;5.47;;;;;;;19.61;100.00;101182.47;2102237;28;20187;-62
2023/06/27 03:20:24;;;;;;;5.97;5.17;;;;;;;19.66;100.00;101190.25;2098738;28;20253;-62
2023/06/27 03:21:24;;;;;;;8.80;5.63;;;;;;;19.66;100.00;101187.44;2104395;28;20562;-63
2023/06/27 03:22:25;;;;;;;7.73;5.93;;;;;;;19.71;100.00;101184.72;2096901;28;20168;-62
2023/06/27 03:23:25;;;;;;;7.13;5.83;;;;;;;19.73;100.00;101181.44;2105307;28;20280;-62
2023/06/27 03:24:25;;;;;;;9.13;5.67;;;;;;;19.77;100.00;101188.44;2104980;28;20561;-63
2023/06/27 03:25:26;;;;;;;8.10;5.50;;;;;;;19.77;100.00;101185.63;2104217;28;20663;-62
2023/06/27 03:26:28;;;;;;;8.07;5.67;;;;;;;19.74;100.00;101180.94;2105522;28;20575;-62
2023/06/27 03:27:28;;;;;;;7.40;5.60;;;;;;;19.34;100.00;101120.84;2103334;28;20225;-62
2023/06/27 03:28:28;;;;;;;5.90;5.23;;;;;;;19.74;100.00;101180.16;2096947;28;20470;-61
2023/06/27 03:29:29;;;;;;;6.93;5.77;;;;;;;19.79;100.00;101190.75;2097319;28;20176;-62
2023/06/27 03:30:29;;;;;;;10.50;5.57;;;;;;;19.72;100.00;101196.75;2104559;28;20191;-62
2023/06/27 03:31:29;;;;;;;7.77;5.70;;;;;;;19.68;100.00;101196.94;2109827;28;20190;-63
2023/06/27 03:32:30;;;;;;;8.53;6.07;;;;;;;19.71;100.00;101183.97;2101891;28;20578;-62
2023/06/27 03:33:30;;;;;;;8.20;6.10;;;;;;;19.45;100.00;101133.06;2096779;28;20272;-62
2023/06/27 03:34:31;;;;;;;6.90;5.50;;;;;;;19.70;100.00;101174.72;2097167;28;20253;-62
2023/06/27 03:35:31;;;;;;;9.43;5.60;;;;;;;19.53;100.00;101148.34;2097216;28;20176;-62
2023/06/27 03:36:35;;;;;;;10.20;6.10;;;;;;;19.27;100.00;101098.72;2097635;28;20178;-62
2023/06/27 03:37:35;;;;;;;10.73;5.90;;;;;;;19.93;100.00;101195.63;2105215;28;20190;-62
2023/06/27 03:38:36;;;;;;;9.93;5.60;;;;;;;19.96;100.00;101189.81;2098158;28;20456;-63
2023/06/27 03:39:36;;;;;;;10.27;6.43;;;;;;;20.02;100.00;101201.19;2105693;28;20667;-62
2023/06/27 03:40:37;;;;;;;15.40;6.10;;;;;;;20.00;100.00;101187.59;2105321;28;20636;-63
2023/06/27 03:41:37;;;;;;;9.20;5.80;;;;;;;20.04;100.00;101204.28;2105071;28;20230;-61
2023/06/27 03:42:38;;;;;;;9.93;5.93;;;;;;;20.02;100.00;101195.53;2100274;28;20190;-62
2023/06/27 03:43:38;;;;;;;11.33;5.83;;;;;;;20.06;100.00;101201.75;2098749;28;20187;-62
2023/06/27 03:44:38;;;;;;;9.80;6.07;;;;;;;20.03;100.00;101200.69;2096922;28;20176;-62
2023/06/27 03:45:40;;;;;;;10.47;6.30;;;;;;;20.06;100.00;101213.03;2097285;28;20200;-63
2023/06/27 03:46:41;;;;;;;11.87;6.60;;;;;;;19.94;100.00;101209.22;2097154;28;20550;-62
2023/06/27 03:47:41;;;;;;;10.97;6.33;;;;;;;19.81;100.00;101188.25;2104966;28;20456;-63
2023/06/27 03:48:42;;;;;;;10.10;6.63;;;;;;;19.96;100.00;101211.56;2098688;28;20194;-62
2023/06/27 03:49:42;;;;;;;11.50;6.00;;;;;;;19.98;100.00;101206.22;2097165;28;20561;-62
2023/06/27 03:50:43;;;;;;;11.73;6.40;;;;;;;19.15;100.00;101074.44;2100953;28;20557;-62
2023/06/27 03:51:43;;;;;;;17.67;6.70;;;;;;;19.77;100.00;101167.97;2101691;28;20190;-62
2023/06/27 03:52:44;;;;;;;10.93;6.90;;;;;;;19.81;100.00;101158.06;2096189;28;20294;-62
2023/06/27 03:53:44;;;;;;;12.43;6.37;;;;;;;19.43;100.00;101095.47;2097427;28;20187;-62
2023/06/27 03:54:45;;;;;;;9.53;5.87;;;;;;;19.40;100.00;101090.81;2105638;28;20228;-62
2023/06/27 03:55:45;;;;;;;8.60;6.37;;;;;;;20.19;100.00;101216.34;2097285;28;20280;-62
2023/06/27 03:56:46;;;;;;;9.90;5.63;;;;;;;20.17;100.00;101208.38;2103763;28;20281;-62
2023/06/27 03:57:46;;;;;;;10.77;6.47;;;;;;;19.78;100.00;101141.38;2099464;28;20196;-62
2023/06/27 03:58:47;;;;;;;9.53;5.97;;;;;;;20.24;100.00;101210.03;2105460;28;20284;-61
2023/06/27 03:59:47;;;;;;;6.57;5.83;;;;;;;19.35;100.00;101061.34;2106979;28;20187;-63
2023/06/27 04:00:53;;;;;;;9.30;5.80;;;;;;;20.32;100.00;101197.91;2098985;28;20206;-62
2023/06/27 04:01:53;;;;;;;10.20;6.20;;;;;;;20.36;100.00;101206.19;2103584;28;20164;-61
2023/06/27 04:02:54;;;;;;;9.17;6.57;;;;;;;20.36;100.00;101206.94;2097090;28;20430;-62
2023/06/27 04:03:54;;;;;;;9.40;5.97;;;;;;;20.40;100.00;101201.91;2113726;28;20564;-62
2023/06/27 04:04:54;;;;;;;9.17;6.30;;;;;;;20.45;100.00;101204.03;2097858;28;20670;-63
2023/06/27 04:05:55;;;;;;;9.33;6.60;;;;;;;20.45;100.00;101195.59;2108757;28;20197;-62
2023/06/27 04:06:55;;;;;;;11.50;6.40;;;;;;;20.54;100.00;101203.94;2103875;28;20183;-62
2023/06/27 04:07:56;;;;;;;9.43;6.07;;;;;;;20.58;100.00;101210.13;2097053;28;20202;-62
2023/06/27 04:08:57;;;;;;;8.67;6.00;;;;;;;20.63;100.00;101201.00;2098762;28;20655;-62
2023/06/27 04:09:57;;;;;;;12.27;6.77;;;;;;;20.05;100.00;101105.31;2099834;28;20207;-62
2023/06/27 04:10:58;;;;;;;9.17;6.43;;;;;;;20.43;100.00;101163.56;2105774;28;20429;-62
2023/06/27 04:11:59;;;;;;;16.70;6.37;;;;;;;20.74;100.00;101204.00;2096836;28;20214;-62
2023/06/27 04:12:59;;;;;;;11.47;6.00;;;;;;;20.77;100.00;101205.06;2111715;28;20308;-62
2023/06/27 04:14:00;;;;;;;11.60;6.17;;;;;;;20.79;100.00;101208.16;2100266;28;20507;-62
2023/06/27 04:15:00;;;;;;;9.50;6.13;;;;;;;20.83;100.00;101205.94;2103151;28;20222;-62
2023/06/27 04:16:01;;;;;;;10.37;6.10;;;;;;;20.83;100.00;101205.94;2101047;28;20187;-62
2023/06/27 04:17:01;;;;;;;9.43;6.13;;;;;;;20.85;100.00;101209.81;2101477;28;20179;-62
2023/06/27 04:18:01;;;;;;;10.30;5.93;;;;;;;20.80;100.00;101199.22;2112215;28;20178;-62
2023/06/27 04:19:02;;;;;;;8.77;5.77;;;;;;;20.42;100.00;101131.78;2104570;28;20177;-63
2023/06/27 04:20:03;;;;;;;8.43;5.87;;;;;;;20.93;100.00;101205.34;2097112;28;20176;-63
2023/06/27 04:21:03;;;;;;;11.67;7.00;;;;;;;20.97;100.00;101205.91;2104272;28;20704;-62
2023/06/27 04:22:04;;;;;;;10.00;6.60;;;;;;;20.52;100.00;101135.28;2110862;28;20198;-62
2023/06/27 04:23:04;;;;;;;13.63;7.03;;;;;;;20.99;100.00;101194.91;2107197;28;20186;-62
2023/06/27 04:24:05;;;;;;;11.63;7.43;;;;;;;21.00;100.00;101198.53;2112937;28;20201;-63
2023/06/27 04:25:10;;;;;;;10.53;7.80;;;;;;;20.99;100.00;101194.91;2112501;28;20208;-63
2023/06/27 04:26:15;;;;;;;11.87;7.70;;;;;;;21.06;100.00;101194.53;2106349;28;20183;-62
2023/06/27 04:27:15;;;;;;;11.80;7.77;;;;;;;21.04;100.00;101194.22;2105139;28;20425;-62
2023/06/27 04:28:16;;;;;;;9.63;7.63;;;;;;;20.98;100.00;101195.44;2098414;28;20436;-62
2023/06/27 04:29:16;;;;;;;13.53;7.30;;;;;;;21.00;100.00;101201.34;2106820;28;20179;-63
2023/06/27 04:30:17;;;;;;;11.23;7.57;;;;;;;20.46;100.00;101120.38;2106895;28;20194;-62
2023/06/27 04:31:17;;;;;;;9.47;7.07;;;;;;;21.07;100.00;101201.72;2099988;28;20226;-62
2023/06/27 04:32:18;;;;;;;9.63;7.40;;;;;;;21.03;100.00;101203.94;2103413;28;20195;-63
2023/06/27 04:33:18;;;;;;;9.53;6.90;;;;;;;21.01;100.00;101200.84;2110049;28;20265;-63
2023/06/27 04:34:18;;;;;;;9.73;7.10;;;;;;;21.07;100.00;101204.53;2111324;28;20636;-62
2023/06/27 04:35:19;;;;;;;9.43;7.27;;;;;;;20.74;100.00;101169.41;2106419;28;20562;-62
2023/06/27 04:36:20;;;;;;;13.87;7.03;;;;;;;21.04;100.00;101208.31;2105354;28;20214;-62
2023/06/27 04:37:23;;;;;;;8.77;7.07;;;;;;;21.03;100.00;101206.78;2098507;28;20176;-62
2023/06/27 04:38:23;;;;;;;9.50;7.40;;;;;;;21.06;100.00;101194.53;2107432;28;20274;-62
2023/06/27 04:39:23;;;;;;;9.90;7.20;;;;;;;21.11;100.00;101210.75;2099728;28;20524;-62
2023/06/27 04:40:24;;;;;;;13.40;7.90;;;;;;;21.15;100.00;101207.72;2098724;28;20282;-63
2023/06/27 04:41:28;;;;;;;9.07;7.20;;;;;;;21.20;100.00;101212.66;2101872;28;20196;-62
2023/06/27 04:42:29;;;;;;;12.93;7.43;;;;;;;21.23;100.00;101212.44;2097847;28;20597;-62